Lewiston Nez Perce County Airport
KLWS : now visible

Airfield :











YOU CAN JOIN US ON...

 
LOGIN :

Register | Disclaimer

   EN    FR    IT 

 









Legend :    VFR   Marginal VFR   IFR   Intensive IFR   Very Intensive IFR
Visi :
Ceiling :
>= 8 km
>= 3000ft
5 to 8 km
1000 to 3000 ft
1500m to 5 km
500 to 1000 ft
800 to 1500m
200 to 500 ft
< 800m
< 200 ft
Symbols :   Thunderstorms  Fog  Heavy snow  Heavy precipitations  Wind > 20 kt






- Airport Elevation : 1442 ft
- IATA code : LWS


KLWS - Lewiston Nez Perce County

CURRENT METAR :
  • 031356Z 18003KT 10SM CLR 22/07 A3006 RMK AO2 SLP166 T02170072

EXPIRED METARs :
  • 031256Z 16004KT 10SM CLR 21/06 A3004 RMK AO2 SLP161 T02060061
  • 031156Z AUTO 22004KT 10SM CLR 23/07 A3002 RMK AO2 SLP153 T02280067 10278 20206 52014

TAF KLWS
Valid from the 03 at 12:00 until the 04 at 12:00 UTC


031122Z 0312/0412 24006KT P6SM FEW100 BKN250
FM031500 32007KT P6SM SKC
FM040500 18004KT P6SM SKC
KZSE FIR / North America



MET'MAP, your aeronautical weather chart ! - Copyright ORBIFLY December 2007 - Disclaimer

ORBIFLY MET'MAP TEAM :

Programming & Development : Alexandra Zaïnal
Concept & original design : Baudouin d'Aumeries
Assistance for programming : Marc-Olivier Méhu
Technical & hardware support : Manuel Goepfert

Contact : metmap@orbifly.com




SOURCES & CREDITS :

   NOAA       Earth
Advisory